Time;durP1;ratioP1;P1;durP2;ratioP2;P2;SDS_P1;SDS_P2;PMS_P1;PMS_P2;Temp;Humidity;BMP_temperature;BMP_pressure;BME280_temperature;BME280_humidity;BME280_pressure;Samples;Min_cycle;Max_cycle;Signal;HPM_P1;HPM_P2
2022/05/25 00:02:21;;;;;;;5.80;3.40;;;;;;;;;;10122177;29;20468;-86
2022/05/25 00:07:24;;;;;;;7.13;3.42;;;;;;;;;;10122494;29;20443;-85
2022/05/25 00:12:27;;;;;;;3.85;3.10;;;;;;;;;;10122170;29;20932;-85
2022/05/25 00:17:29;;;;;;;6.33;3.70;;;;;;;;;;10123145;29;21367;-86
2022/05/25 00:22:41;;;;;;;7.85;3.20;;;;;;;;;;10118498;29;20427;-86
2022/05/25 00:27:44;;;;;;;6.40;3.45;;;;;;;;;;10121347;29;20439;-86
2022/05/25 00:32:46;;;;;;;5.30;3.75;;;;;;;;;;10122188;29;20413;-86
2022/05/25 00:37:49;;;;;;;4.40;3.42;;;;;;;;;;10121383;29;20409;-86
2022/05/25 00:42:52;;;;;;;4.03;3.15;;;;;;;;;;10121078;29;20436;-85
2022/05/25 00:47:54;;;;;;;4.22;3.00;;;;;;;;;;10121731;29;20723;-86
2022/05/25 00:52:56;;;;;;;4.30;2.80;;;;;;;;;;10121400;29;20810;-86
2022/05/25 00:58:01;;;;;;;4.57;2.78;;;;;;;;;;10121678;29;20788;-86
2022/05/25 01:03:08;;;;;;;5.65;2.83;;;;;;;;;;10119194;29;20994;-86
2022/05/25 01:08:38;;;;;;;4.00;2.70;;;;;;;;;;10121124;29;20428;-85
2022/05/25 01:13:50;;;;;;;6.18;2.67;;;;;;;;;;10120336;29;20420;-86
2022/05/25 01:18:58;;;;;;;5.77;3.17;;;;;;;;;;10118360;29;20957;-86
2022/05/25 01:24:13;;;;;;;5.47;2.73;;;;;;;;;;10120187;29;20786;-85
2022/05/25 01:29:45;;;;;;;4.47;2.77;;;;;;;;;;10117054;29;20413;-86
2022/05/25 01:34:54;;;;;;;3.88;2.83;;;;;;;;;;10117575;29;20425;-86
2022/05/25 01:40:02;;;;;;;5.13;2.72;;;;;;;;;;10119739;29;20918;-86
2022/05/25 01:45:09;;;;;;;3.83;2.57;;;;;;;;;;10120303;29;20474;-86
2022/05/25 01:50:13;;;;;;;4.80;2.50;;;;;;;;;;10127431;29;20512;-86
2022/05/25 01:55:20;;;;;;;4.88;2.33;;;;;;;;;;10123782;29;20504;-86
2022/05/25 02:00:35;;;;;;;3.57;2.37;;;;;;;;;;10128401;29;20428;-86
2022/05/25 02:05:39;;;;;;;5.67;2.43;;;;;;;;;;10128654;29;20448;-86
2022/05/25 02:10:55;;;;;;;2.67;2.40;;;;;;;;;;10128250;29;20425;-85
2022/05/25 02:16:12;;;;;;;4.32;2.40;;;;;;;;;;10128507;29;20428;-85
2022/05/25 02:21:17;;;;;;;5.03;2.33;;;;;;;;;;10128651;29;20420;-86
2022/05/25 02:26:23;;;;;;;4.65;2.65;;;;;;;;;;10127645;29;20428;-86
2022/05/25 02:31:29;;;;;;;3.97;2.33;;;;;;;;;;10127892;29;20500;-86
2022/05/25 02:36:35;;;;;;;4.65;2.70;;;;;;;;;;10127901;29;20496;-86
2022/05/25 02:41:42;;;;;;;4.32;2.60;;;;;;;;;;10126949;29;20417;-86
2022/05/25 02:46:46;;;;;;;4.10;2.60;;;;;;;;;;10127420;29;20429;-85
2022/05/25 02:51:48;;;;;;;4.78;2.28;;;;;;;;;;10126762;29;20421;-86
2022/05/25 02:56:49;;;;;;;4.00;2.30;;;;;;;;;;10125994;29;20500;-86
2022/05/25 03:01:53;;;;;;;4.47;2.50;;;;;;;;;;10126866;29;20770;-86
2022/05/25 03:06:55;;;;;;;4.80;2.20;;;;;;;;;;10126840;29;20475;-86
2022/05/25 03:11:57;;;;;;;3.78;2.30;;;;;;;;;;10126264;29;20435;-86
2022/05/25 03:17:06;;;;;;;3.15;2.40;;;;;;;;;;10126546;29;20420;-86
2022/05/25 03:22:08;;;;;;;3.78;2.30;;;;;;;;;;10126385;29;20436;-86
2022/05/25 03:27:10;;;;;;;2.88;2.40;;;;;;;;;;10125700;29;20919;-86
2022/05/25 03:32:14;;;;;;;5.07;2.70;;;;;;;;;;10125728;29;20420;-86
2022/05/25 03:37:15;;;;;;;3.83;2.80;;;;;;;;;;10125493;29;20417;-86
2022/05/25 03:42:19;;;;;;;5.60;2.88;;;;;;;;;;10124857;29;20416;-86
2022/05/25 03:47:22;;;;;;;8.13;3.28;;;;;;;;;;10125149;29;20445;-87
2022/05/25 03:52:24;;;;;;;4.03;2.87;;;;;;;;;;10124413;29;20432;-86
2022/05/25 03:57:26;;;;;;;3.88;2.90;;;;;;;;;;10125211;29;20424;-86
2022/05/25 04:02:29;;;;;;;5.40;2.73;;;;;;;;;;10124433;29;20413;-86
2022/05/25 04:07:31;;;;;;;4.97;2.75;;;;;;;;;;10110091;29;20874;-86
2022/05/25 04:12:33;;;;;;;4.87;3.00;;;;;;;;;;10120679;29;20453;-86
2022/05/25 04:17:37;;;;;;;4.20;3.47;;;;;;;;;;10122838;29;20418;-85
2022/05/25 04:22:39;;;;;;;6.32;3.90;;;;;;;;;;10122293;29;20433;-86
2022/05/25 04:27:43;;;;;;;7.20;3.90;;;;;;;;;;10122047;29;20510;-87
2022/05/25 04:32:46;;;;;;;4.60;4.10;;;;;;;;;;10118925;29;20545;-86
2022/05/25 04:37:52;;;;;;;5.27;4.00;;;;;;;;;;10121833;29;20427;-86
2022/05/25 04:42:55;;;;;;;5.65;4.28;;;;;;;;;;10119014;29;20787;-86
2022/05/25 04:48:00;;;;;;;6.15;4.18;;;;;;;;;;10122012;29;20802;-86
2022/05/25 04:53:02;;;;;;;8.83;4.40;;;;;;;;;;10120524;29;20523;-90
2022/05/25 04:58:04;;;;;;;4.88;3.72;;;;;;;;;;10121486;29;20444;-86
2022/05/25 05:03:07;;;;;;;7.22;3.88;;;;;;;;;;10121602;29;20413;-86
2022/05/25 05:08:09;;;;;;;5.80;3.73;;;;;;;;;;10121406;29;20433;-86
2022/05/25 05:13:11;;;;;;;4.85;4.20;;;;;;;;;;10118145;29;20920;-86
2022/05/25 05:18:14;;;;;;;6.50;4.57;;;;;;;;;;10113550;29;20965;-86
2022/05/25 05:23:21;;;;;;;9.52;4.47;;;;;;;;;;10116663;29;20444;-86
2022/05/25 05:28:29;;;;;;;8.23;4.80;;;;;;;;;;10116277;29;20583;-86
2022/05/25 05:33:32;;;;;;;6.43;4.40;;;;;;;;;;10116361;29;20428;-87
2022/05/25 05:38:37;;;;;;;6.25;4.38;;;;;;;;;;10105086;29;20429;-85
2022/05/25 05:43:39;;;;;;;7.13;4.75;;;;;;;;;;10117215;29;20417;-86
2022/05/25 05:48:43;;;;;;;6.40;4.32;;;;;;;;;;10106547;29;20520;-84
2022/05/25 05:53:45;;;;;;;7.00;4.10;;;;;;;;;;10118355;29;20504;-87
2022/05/25 05:58:47;;;;;;;10.40;4.68;;;;;;;;;;10118651;29;20785;-88
2022/05/25 06:03:50;;;;;;;8.90;4.68;;;;;;;;;;10119397;29;20512;-87
2022/05/25 06:08:53;;;;;;;8.83;4.27;;;;;;;;;;10118669;29;20429;-87
2022/05/25 06:13:55;;;;;;;7.47;4.10;;;;;;;;;;10118987;29;20667;-88
2022/05/25 06:24:17;;;;;;;7.03;4.38;;;;;;;;;;10117635;29;21265;-87
2022/05/25 06:29:21;;;;;;;6.85;4.40;;;;;;;;;;10118513;29;20424;-87
2022/05/25 06:34:24;;;;;;;8.77;4.70;;;;;;;;;;10122598;29;20820;-88
2022/05/25 06:39:26;;;;;;;7.10;4.77;;;;;;;;;;10125636;29;20417;-87
2022/05/25 06:44:27;;;;;;;6.10;3.75;;;;;;;;;;10121960;29;20653;-86
2022/05/25 06:49:31;;;;;;;8.00;4.22;;;;;;;;;;10125277;29;20417;-87
2022/05/25 06:54:33;;;;;;;6.77;3.30;;;;;;;;;;10124918;29;20456;-88
2022/05/25 06:59:34;;;;;;;5.97;3.00;;;;;;;;;;10125367;29;20921;-87
2022/05/25 07:04:38;;;;;;;4.47;3.20;;;;;;;;;;10124615;29;20431;-87
2022/05/25 07:09:39;;;;;;;5.93;3.80;;;;;;;;;;10124122;29;20521;-87
2022/05/25 07:14:41;;;;;;;4.88;3.35;;;;;;;;;;10124993;29;20425;-87
2022/05/25 07:19:44;;;;;;;6.28;3.58;;;;;;;;;;10117995;29;20409;-87
2022/05/25 07:24:46;;;;;;;5.88;3.17;;;;;;;;;;10123154;29;20922;-87
2022/05/25 07:29:48;;;;;;;6.10;3.27;;;;;;;;;;10114833;29;20413;-88
2022/05/25 07:34:55;;;;;;;5.45;3.25;;;;;;;;;;10124699;29;20520;-87
2022/05/25 07:40:01;;;;;;;2.45;2.20;;;;;;;;;;10123782;29;20508;-88
2022/05/25 07:45:05;;;;;;;5.20;2.30;;;;;;;;;;10120545;29;20898;-86
2022/05/25 07:50:09;;;;;;;4.75;2.35;;;;;;;;;;10122308;29;20526;-86
2022/05/25 07:55:12;;;;;;;3.00;2.10;;;;;;;;;;10123217;29;20425;-87
2022/05/25 08:00:15;;;;;;;4.75;2.50;;;;;;;;;;10123815;29;20425;-87
2022/05/25 08:10:43;;;;;;;5.05;2.80;;;;;;;;;;10120311;29;20413;-86
2022/05/25 08:15:46;;;;;;;6.23;2.77;;;;;;;;;;10122788;29;20508;-87
2022/05/25 08:20:49;;;;;;;5.00;3.00;;;;;;;;;;10122204;29;20489;-88
2022/05/25 08:25:51;;;;;;;3.95;2.33;;;;;;;;;;10121921;29;20528;-87
2022/05/25 08:30:53;;;;;;;4.50;2.33;;;;;;;;;;10117364;29;20457;-87
2022/05/25 08:35:56;;;;;;;8.07;2.57;;;;;;;;;;10121734;29;20500;-87
2022/05/25 08:40:59;;;;;;;4.75;2.70;;;;;;;;;;10120887;29;20854;-87
2022/05/25 08:46:05;;;;;;;5.32;2.80;;;;;;;;;;10116771;29;20557;-87
2022/05/25 08:51:12;;;;;;;5.45;2.47;;;;;;;;;;10119017;29;20435;-87
2022/05/25 08:56:22;;;;;;;4.90;2.35;;;;;;;;;;10120766;29;20841;-88
2022/05/25 09:01:29;;;;;;;5.10;3.08;;;;;;;;;;10120233;29;20453;-87
2022/05/25 09:06:43;;;;;;;4.65;3.03;;;;;;;;;;10117147;29;20520;-87
2022/05/25 09:11:50;;;;;;;10.75;3.40;;;;;;;;;;10120691;29;20492;-86
2022/05/25 09:16:57;;;;;;;5.00;3.50;;;;;;;;;;10123866;29;20508;-87
2022/05/25 09:22:05;;;;;;;6.03;3.70;;;;;;;;;;10149952;29;20437;-87
2022/05/25 09:27:09;;;;;;;6.40;3.47;;;;;;;;;;10134821;29;20440;-87
2022/05/25 09:32:21;;;;;;;6.27;3.67;;;;;;;;;;10120051;29;20417;-87
2022/05/25 09:37:41;;;;;;;5.95;4.15;;;;;;;;;;10119970;29;20424;-87
2022/05/25 09:42:43;;;;;;;10.55;4.45;;;;;;;;;;10117271;29;20416;-88
2022/05/25 09:47:47;;;;;;;7.10;3.93;;;;;;;;;;10119268;29;20464;-87
2022/05/25 09:52:52;;;;;;;5.85;3.60;;;;;;;;;;10119165;29;20783;-86
2022/05/25 09:57:59;;;;;;;7.82;3.67;;;;;;;;;;10119549;29;20472;-86
2022/05/25 10:03:05;;;;;;;6.30;3.90;;;;;;;;;;10119258;29;20413;-86
2022/05/25 10:08:16;;;;;;;6.90;3.88;;;;;;;;;;10120678;29;20464;-87
2022/05/25 10:13:23;;;;;;;9.15;4.40;;;;;;;;;;10126602;29;20920;-87
2022/05/25 10:18:36;;;;;;;7.75;4.30;;;;;;;;;;10126498;29;20413;-87
2022/05/25 10:23:44;;;;;;;7.38;4.20;;;;;;;;;;10120337;29;20413;-87
2022/05/25 10:28:49;;;;;;;7.57;4.23;;;;;;;;;;10125105;29;20952;-87
2022/05/25 10:39:21;;;;;;;4.90;3.80;;;;;;;;;;10123044;29;20504;-88
2022/05/25 10:44:24;;;;;;;6.32;3.60;;;;;;;;;;10126289;29;20421;-87
2022/05/25 10:49:32;;;;;;;5.35;3.47;;;;;;;;;;10125469;29;20441;-87
2022/05/25 10:54:50;;;;;;;5.60;3.58;;;;;;;;;;10121808;29;20436;-88
2022/05/25 11:00:03;;;;;;;5.73;4.10;;;;;;;;;;10125248;29;20500;-87
2022/05/25 11:05:22;;;;;;;7.63;4.60;;;;;;;;;;10116177;29;20953;-85
2022/05/25 11:10:48;;;;;;;7.03;4.10;;;;;;;;;;10117331;29;20528;-86
2022/05/25 11:15:56;;;;;;;6.30;3.95;;;;;;;;;;10121110;29;20874;-85
2022/05/25 11:21:16;;;;;;;4.73;3.80;;;;;;;;;;10120498;29;20428;-89
2022/05/25 11:26:37;;;;;;;6.85;4.07;;;;;;;;;;10115507;29;20436;-88
2022/05/25 11:31:49;;;;;;;12.43;4.15;;;;;;;;;;10121415;29;20432;-88
2022/05/25 11:37:08;;;;;;;6.47;4.13;;;;;;;;;;10115741;29;20439;-88
2022/05/25 11:42:25;;;;;;;10.73;4.60;;;;;;;;;;10115723;29;20433;-89
2022/05/25 11:47:43;;;;;;;7.53;4.40;;;;;;;;;;10114091;29;20433;-88
2022/05/25 11:53:12;;;;;;;8.82;4.85;;;;;;;;;;10114020;29;20455;-88
2022/05/25 11:58:28;;;;;;;7.63;4.20;;;;;;;;;;10114683;29;20425;-87
2022/05/25 12:04:14;;;;;;;9.15;4.63;;;;;;;;;;10117835;29;20411;-89
2022/05/25 12:09:28;;;;;;;8.32;4.80;;;;;;;;;;10095667;29;20452;-88
2022/05/25 12:14:44;;;;;;;7.72;4.95;;;;;;;;;;10059333;29;20425;-88
2022/05/25 12:19:48;;;;;;;7.77;4.63;;;;;;;;;;10056742;29;20453;-88
2022/05/25 12:24:54;;;;;;;8.32;4.82;;;;;;;;;;10056844;29;20443;-89
2022/05/25 12:30:04;;;;;;;6.93;4.40;;;;;;;;;;10056368;29;20437;-88
2022/05/25 12:35:08;;;;;;;9.02;4.20;;;;;;;;;;10056869;29;20425;-88
2022/05/25 12:40:12;;;;;;;10.95;4.80;;;;;;;;;;10050398;29;20438;-88
2022/05/25 12:51:30;;;;;;;7.68;4.43;;;;;;;;;;10055011;29;20393;-88
2022/05/25 12:56:37;;;;;;;7.25;4.40;;;;;;;;;;10051862;29;20456;-88
2022/05/25 13:01:42;;;;;;;8.45;4.57;;;;;;;;;;10051074;29;20779;-89
2022/05/25 13:07:11;;;;;;;7.07;4.28;;;;;;;;;;10059503;29;20441;-87
2022/05/25 13:12:55;;;;;;;6.93;4.53;;;;;;;;;;10066852;29;21189;-89
2022/05/25 13:18:02;;;;;;;7.18;4.15;;;;;;;;;;10063041;29;20440;-88
2022/05/25 13:23:07;;;;;;;6.93;4.20;;;;;;;;;;10062064;29;20517;-88
2022/05/25 13:28:20;;;;;;;9.48;4.72;;;;;;;;;;10082985;29;20433;-89
2022/05/25 13:33:27;;;;;;;8.02;4.47;;;;;;;;;;10088070;29;20436;-88
2022/05/25 13:38:38;;;;;;;6.95;3.90;;;;;;;;;;10086724;29;20684;-88
2022/05/25 13:43:48;;;;;;;10.30;4.40;;;;;;;;;;10080749;29;20919;-88
2022/05/25 13:48:54;;;;;;;6.50;4.07;;;;;;;;;;10076160;29;20445;-88
2022/05/25 13:53:56;;;;;;;6.85;3.90;;;;;;;;;;10084960;29;20433;-89
2022/05/25 13:59:00;;;;;;;6.63;3.90;;;;;;;;;;10079360;29;20924;-88
2022/05/25 14:04:09;;;;;;;6.00;4.22;;;;;;;;;;10082482;29;20581;-88
2022/05/25 14:14:33;;;;;;;6.88;4.30;;;;;;;;;;10079633;29;20444;-89
2022/05/25 14:19:51;;;;;;;6.65;4.57;;;;;;;;;;10080679;29;20933;-87
2022/05/25 14:24:55;;;;;;;7.65;3.83;;;;;;;;;;10081961;29;20425;-88
2022/05/25 14:30:02;;;;;;;7.28;4.10;;;;;;;;;;10082100;29;20448;-87
2022/05/25 14:35:12;;;;;;;7.05;4.05;;;;;;;;;;10086456;29;20425;-87
2022/05/25 14:40:19;;;;;;;9.03;4.17;;;;;;;;;;10079868;29;20898;-88
2022/05/25 14:45:22;;;;;;;7.47;4.32;;;;;;;;;;10071575;29;20421;-88
2022/05/25 14:50:29;;;;;;;10.52;4.60;;;;;;;;;;10074090;29;20445;-89
2022/05/25 14:55:33;;;;;;;7.15;4.60;;;;;;;;;;10083437;29;20461;-88
2022/05/25 15:00:38;;;;;;;8.43;4.60;;;;;;;;;;10083944;29;20425;-88
2022/05/25 15:05:47;;;;;;;6.70;4.33;;;;;;;;;;10091696;29;20425;-88
2022/05/25 15:10:49;;;;;;;6.60;4.10;;;;;;;;;;10083694;29;20421;-87
2022/05/25 15:21:31;;;;;;;6.70;4.80;;;;;;;;;;10087883;29;20397;-87
2022/05/25 15:26:35;;;;;;;7.15;4.35;;;;;;;;;;10092313;29;20437;-86
2022/05/25 15:31:37;;;;;;;7.45;4.18;;;;;;;;;;10087882;29;20452;-88
2022/05/25 15:36:42;;;;;;;6.57;4.30;;;;;;;;;;10090111;29;20427;-86
2022/05/25 15:41:44;;;;;;;7.55;4.18;;;;;;;;;;10090803;29;20421;-86
2022/05/25 15:46:46;;;;;;;6.97;4.25;;;;;;;;;;10111232;29;20427;-88
2022/05/25 15:51:52;;;;;;;6.87;4.20;;;;;;;;;;10101330;29;20520;-87
2022/05/25 15:56:57;;;;;;;7.90;4.17;;;;;;;;;;10090038;29;21121;-86
2022/05/25 16:02:01;;;;;;;8.60;4.80;;;;;;;;;;10089272;29;20433;-86
2022/05/25 16:07:10;;;;;;;7.10;4.75;;;;;;;;;;10087971;29;20449;-87
2022/05/25 16:12:14;;;;;;;8.53;4.60;;;;;;;;;;10088297;29;20806;-87
2022/05/25 16:17:16;;;;;;;7.25;4.65;;;;;;;;;;10098471;29;20924;-86
2022/05/25 16:22:19;;;;;;;7.97;4.40;;;;;;;;;;10120064;29;20417;-89
2022/05/25 16:27:22;;;;;;;7.97;4.53;;;;;;;;;;10122458;29;20933;-86
2022/05/25 16:32:24;;;;;;;8.17;4.50;;;;;;;;;;10121271;29;20505;-88
2022/05/25 16:37:27;;;;;;;7.25;4.40;;;;;;;;;;10119384;29;20425;-87
2022/05/25 16:42:29;;;;;;;8.23;4.20;;;;;;;;;;10122426;29;20855;-88
2022/05/25 16:47:31;;;;;;;7.03;4.18;;;;;;;;;;10123332;29;20447;-87
2022/05/25 16:52:35;;;;;;;6.05;4.00;;;;;;;;;;10122171;29;20444;-88
2022/05/25 16:57:37;;;;;;;5.38;4.03;;;;;;;;;;10121069;29;20436;-87
2022/05/25 17:02:39;;;;;;;8.03;4.23;;;;;;;;;;10124373;29;20504;-90
2022/05/25 17:07:42;;;;;;;8.63;4.68;;;;;;;;;;10120877;29;20433;-88
2022/05/25 17:12:44;;;;;;;6.72;4.38;;;;;;;;;;10121333;29;20428;-87
2022/05/25 17:17:46;;;;;;;9.60;4.90;;;;;;;;;;10120663;29;20507;-89
2022/05/25 17:22:49;;;;;;;7.90;4.28;;;;;;;;;;10120685;29;20435;-81
2022/05/25 17:27:51;;;;;;;7.72;4.32;;;;;;;;;;10119967;29;20531;-91
2022/05/25 17:32:53;;;;;;;7.60;4.10;;;;;;;;;;10123406;29;20419;-76
2022/05/25 17:43:19;;;;;;;7.18;4.28;;;;;;;;;;10113108;29;20472;-90
2022/05/25 17:48:22;;;;;;;6.70;4.30;;;;;;;;;;10115340;29;20429;-90
2022/05/25 17:53:25;;;;;;;8.60;5.47;;;;;;;;;;10111531;29;20438;-89
2022/05/25 17:58:28;;;;;;;9.70;5.93;;;;;;;;;;10117534;29;20429;-90
2022/05/25 18:03:30;;;;;;;12.60;6.37;;;;;;;;;;10118913;29;20432;-87
2022/05/25 18:08:34;;;;;;;9.48;6.55;;;;;;;;;;10114679;29;20467;-89
2022/05/25 18:13:37;;;;;;;10.10;6.07;;;;;;;;;;10117658;29;20413;-89
2022/05/25 18:18:39;;;;;;;13.20;6.85;;;;;;;;;;10115267;29;20431;-87
2022/05/25 18:23:42;;;;;;;10.23;6.28;;;;;;;;;;10122295;29;20413;-89
2022/05/25 18:28:44;;;;;;;10.33;6.13;;;;;;;;;;10123058;29;20436;-89
2022/05/25 18:33:46;;;;;;;9.97;6.47;;;;;;;;;;10127997;29;20424;-89
2022/05/25 18:38:49;;;;;;;9.50;6.00;;;;;;;;;;10126576;29;20845;-89
2022/05/25 18:43:52;;;;;;;9.40;5.43;;;;;;;;;;10127855;29;20504;-89
2022/05/25 18:48:55;;;;;;;10.57;4.97;;;;;;;;;;10127353;29;20432;-91
2022/05/25 18:53:58;;;;;;;8.35;4.90;;;;;;;;;;10125782;29;20447;-88
2022/05/25 18:59:00;;;;;;;15.03;4.87;;;;;;;;;;10128239;29;20421;-88
2022/05/25 19:04:02;;;;;;;11.20;5.13;;;;;;;;;;10128375;29;20421;-89
2022/05/25 19:09:08;;;;;;;10.33;5.20;;;;;;;;;;10125752;29;20806;-89
2022/05/25 19:14:14;;;;;;;8.95;4.85;;;;;;;;;;10128826;29;20432;-88
2022/05/25 19:19:17;;;;;;;11.07;5.00;;;;;;;;;;10121702;29;20426;-88
2022/05/25 19:24:22;;;;;;;13.60;5.23;;;;;;;;;;10106994;29;20432;-89
2022/05/25 19:29:24;;;;;;;13.20;5.45;;;;;;;;;;10127014;29;20477;-89
2022/05/25 19:34:27;;;;;;;10.93;5.57;;;;;;;;;;10127053;29;20423;-88
2022/05/25 19:39:34;;;;;;;8.82;4.80;;;;;;;;;;10116844;29;20886;-90
2022/05/25 19:44:44;;;;;;;9.68;5.20;;;;;;;;;;10126054;29;20417;-89
2022/05/25 19:55:08;;;;;;;13.13;5.65;;;;;;;;;;10117360;29;20429;-85
2022/05/25 20:00:14;;;;;;;11.85;5.65;;;;;;;;;;10115329;29;20440;-86
2022/05/25 20:05:17;;;;;;;10.90;5.65;;;;;;;;;;10112898;29;20779;-86
2022/05/25 20:10:23;;;;;;;11.33;5.57;;;;;;;;;;10115621;29;20934;-86
2022/05/25 20:15:28;;;;;;;9.18;5.57;;;;;;;;;;10118192;29;20428;-86
2022/05/25 20:20:32;;;;;;;10.23;5.50;;;;;;;;;;10117317;29;20520;-86
2022/05/25 20:25:36;;;;;;;9.47;5.50;;;;;;;;;;10118323;29;20476;-86
2022/05/25 20:30:38;;;;;;;12.33;5.67;;;;;;;;;;10119353;29;20445;-86
2022/05/25 20:35:43;;;;;;;10.27;6.40;;;;;;;;;;10118743;29;20436;-86
2022/05/25 20:40:47;;;;;;;12.02;6.78;;;;;;;;;;10118194;29;20430;-87
2022/05/25 20:45:49;;;;;;;10.30;7.07;;;;;;;;;;10117240;29;20429;-86
2022/05/25 20:50:51;;;;;;;15.38;8.20;;;;;;;;;;10115336;29;20534;-87
2022/05/25 20:55:56;;;;;;;13.45;8.50;;;;;;;;;;10119094;29;20440;-87
2022/05/25 21:01:02;;;;;;;17.90;9.52;;;;;;;;;;10116210;29;20441;-86
2022/05/25 21:06:06;;;;;;;12.10;9.40;;;;;;;;;;10116568;29;20440;-86
2022/05/25 21:11:09;;;;;;;11.38;9.07;;;;;;;;;;10118293;29;20440;-85
2022/05/25 21:16:11;;;;;;;13.80;9.70;;;;;;;;;;10114704;29;20433;-86
2022/05/25 21:21:13;;;;;;;13.98;9.25;;;;;;;;;;10113107;29;20437;-86
2022/05/25 21:26:16;;;;;;;14.77;8.77;;;;;;;;;;10115870;29;20433;-86
2022/05/25 21:36:38;;;;;;;16.07;8.97;;;;;;;;;;10118007;29;20421;-87
2022/05/25 21:41:41;;;;;;;15.02;9.32;;;;;;;;;;10117796;29;20440;-86
2022/05/25 21:52:02;;;;;;;13.45;8.95;;;;;;;;;;10113072;29;20429;-87
2022/05/25 21:57:05;;;;;;;16.13;9.98;;;;;;;;;;10113798;29;20456;-87
2022/05/25 22:02:08;;;;;;;12.70;9.38;;;;;;;;;;10115165;29;20412;-87
2022/05/25 22:07:10;;;;;;;12.32;9.00;;;;;;;;;;10127056;29;20790;-87
2022/05/25 22:12:15;;;;;;;13.07;9.52;;;;;;;;;;10126665;29;20417;-87
2022/05/25 22:17:17;;;;;;;14.95;9.88;;;;;;;;;;10121370;29;20421;-87
2022/05/25 22:22:19;;;;;;;14.10;10.60;;;;;;;;;;10127312;29;20443;-88
2022/05/25 22:27:22;;;;;;;12.53;10.90;;;;;;;;;;10126428;29;20518;-87
2022/05/25 22:32:24;;;;;;;15.60;10.90;;;;;;;;;;10126520;29;20851;-88
2022/05/25 22:37:26;;;;;;;14.38;10.57;;;;;;;;;;10126152;29;20918;-87
2022/05/25 22:42:29;;;;;;;13.93;10.00;;;;;;;;;;10125931;29;20508;-87
2022/05/25 22:47:31;;;;;;;13.73;10.33;;;;;;;;;;10126448;29;20412;-87
2022/05/25 22:52:33;;;;;;;15.63;10.73;;;;;;;;;;10125986;29;20500;-88
2022/05/25 22:57:37;;;;;;;15.40;10.68;;;;;;;;;;10126300;29;20417;-88
2022/05/25 23:02:38;;;;;;;16.02;11.07;;;;;;;;;;10126347;29;20902;-87
2022/05/25 23:07:41;;;;;;;15.40;11.00;;;;;;;;;;10125810;29;20439;-87
2022/05/25 23:12:45;;;;;;;14.93;10.60;;;;;;;;;;10125149;29;20906;-87
2022/05/25 23:17:47;;;;;;;14.17;10.50;;;;;;;;;;10120597;29;20421;-87
2022/05/25 23:22:48;;;;;;;13.63;11.33;;;;;;;;;;10125128;29;20425;-88
2022/05/25 23:29:18;;;;;;;13.65;11.02;;;;;;;;;;10124690;29;20511;-86
2022/05/25 23:33:14;;;;;;;16.07;11.20;;;;;;;;;;10124967;29;20418;-86
2022/05/25 23:38:16;;;;;;;14.70;10.90;;;;;;;;;;10124742;29;20707;-86
2022/05/25 23:48:38;;;;;;;13.70;11.10;;;;;;;;;;10122997;29;20456;-86
2022/05/25 23:53:40;;;;;;;14.23;11.50;;;;;;;;;;10122927;29;20520;-87
2022/05/25 23:58:43;;;;;;;15.65;10.88;;;;;;;;;;10123420;29;20425;-88
